createdAt,value
2022-10-26T00:01:15.000Z,13.44
2022-10-26T00:15:54.000Z,13.04
2022-10-26T00:30:32.000Z,13.68
2022-10-26T00:45:09.000Z,13.44
2022-10-26T00:59:47.000Z,13.44
2022-10-26T01:14:25.000Z,13.32
2022-10-26T01:29:03.000Z,12.77
2022-10-26T01:43:40.000Z,12.82
2022-10-26T01:58:18.000Z,12.54
2022-10-26T02:12:57.000Z,12.53
2022-10-26T02:27:32.000Z,12.52
2022-10-26T02:42:11.000Z,12.68
2022-10-26T02:56:48.000Z,12.52
2022-10-26T03:11:28.000Z,12.76
2022-10-26T03:26:04.000Z,12.57
2022-10-26T03:40:36.000Z,12.74
2022-10-26T03:55:14.000Z,12.78
2022-10-26T04:09:49.000Z,12.67
2022-10-26T04:24:27.000Z,12.66
2022-10-26T04:39:06.000Z,12.69
2022-10-26T04:53:45.000Z,12.74
2022-10-26T05:08:24.000Z,12.65
2022-10-26T05:23:01.000Z,12.87
2022-10-26T05:37:39.000Z,13.1
2022-10-26T05:52:15.000Z,13.1
2022-10-26T06:06:54.000Z,12.85
2022-10-26T06:21:32.000Z,12.97
2022-10-26T06:36:10.000Z,12.94
2022-10-26T06:50:46.000Z,13.63
2022-10-26T07:05:26.000Z,14
2022-10-26T07:20:05.000Z,14.41
2022-10-26T07:34:46.000Z,14.46
2022-10-26T07:49:25.000Z,14.85
2022-10-26T08:04:04.000Z,14.82
2022-10-26T08:18:42.000Z,15.31
2022-10-26T08:33:23.000Z,16.36
2022-10-26T08:48:11.000Z,18.18
2022-10-26T09:02:52.000Z,18.53
2022-10-26T09:17:29.000Z,18.11
2022-10-26T09:32:10.000Z,17.67
2022-10-26T09:46:43.000Z,16.76
2022-10-26T10:01:22.000Z,17.06
2022-10-26T10:16:00.000Z,17.8
2022-10-26T10:30:45.000Z,18.26
2022-10-26T10:45:25.000Z,21.91
2022-10-26T10:50:23.000Z,26.06
2022-10-26T10:55:20.000Z,23.61
2022-10-26T11:00:16.000Z,24.83
2022-10-26T11:05:12.000Z,26.62
2022-10-26T11:10:08.000Z,23.11
2022-10-26T11:15:01.000Z,20.17
2022-10-26T11:29:23.000Z,21.18
2022-10-26T11:34:18.000Z,21.27
2022-10-26T11:39:13.000Z,20.8
2022-10-26T11:44:07.000Z,20.15
2022-10-26T11:58:53.000Z,22.02
2022-10-26T12:03:48.000Z,21.61
2022-10-26T12:08:42.000Z,22.9
2022-10-26T12:13:37.000Z,21.82
2022-10-26T12:18:32.000Z,22.02
2022-10-26T12:23:27.000Z,23.68
2022-10-26T12:28:22.000Z,25.35
2022-10-26T12:33:18.000Z,26.6
2022-10-26T12:38:11.000Z,26.79
2022-10-26T12:43:07.000Z,26.03
2022-10-26T12:48:02.000Z,25.6
2022-10-26T12:52:57.000Z,26.35
2022-10-26T12:57:53.000Z,26.78
2022-10-26T13:02:47.000Z,27.27
2022-10-26T13:07:42.000Z,26.56
2022-10-26T13:12:36.000Z,25.93
2022-10-26T13:17:30.000Z,26.17
2022-10-26T13:22:24.000Z,28.4
2022-10-26T13:27:19.000Z,23.67
2022-10-26T13:32:16.000Z,26.35
2022-10-26T13:37:07.000Z,27.02
2022-10-26T13:42:03.000Z,25.24
2022-10-26T13:46:55.000Z,25.92
2022-10-26T13:51:49.000Z,25.97
2022-10-26T13:56:43.000Z,25.4
2022-10-26T14:01:38.000Z,24.94
2022-10-26T14:06:33.000Z,24.72
2022-10-26T14:11:27.000Z,26.55
2022-10-26T14:16:22.000Z,26.8
2022-10-26T14:21:17.000Z,25.08
2022-10-26T14:26:12.000Z,24.58
2022-10-26T14:31:06.000Z,25.1
2022-10-26T14:36:01.000Z,24.39
2022-10-26T14:40:55.000Z,24.74
2022-10-26T14:50:41.000Z,22.6
2022-10-26T14:55:34.000Z,22.78
2022-10-26T15:00:28.000Z,22.42
2022-10-26T15:05:22.000Z,21.54
2022-10-26T15:10:17.000Z,21.73
2022-10-26T15:15:11.000Z,22.36
2022-10-26T15:20:05.000Z,21.56
2022-10-26T15:25:00.000Z,22.6
2022-10-26T15:29:52.000Z,21.7
2022-10-26T15:34:47.000Z,21.18
2022-10-26T15:39:41.000Z,21.33
2022-10-26T15:44:36.000Z,20.34
2022-10-26T15:49:30.000Z,20.29
2022-10-26T15:54:24.000Z,19.98
2022-10-26T15:59:19.000Z,19.66
2022-10-26T16:04:13.000Z,19.59
2022-10-26T16:09:07.000Z,19.4
2022-10-26T16:14:01.000Z,19.24
2022-10-26T16:18:55.000Z,19.09
2022-10-26T16:23:49.000Z,18.76
2022-10-26T16:28:42.000Z,18.62
2022-10-26T16:33:37.000Z,18.59
2022-10-26T16:38:31.000Z,18.4
2022-10-26T16:43:22.000Z,18.21
2022-10-26T16:48:17.000Z,17.91
2022-10-26T16:53:10.000Z,17.78
2022-10-26T16:58:04.000Z,17.68
2022-10-26T17:02:58.000Z,17.5
2022-10-26T17:07:51.000Z,17.22
2022-10-26T17:12:46.000Z,16.79
2022-10-26T17:17:40.000Z,16.87
2022-10-26T17:22:35.000Z,16.54
2022-10-26T17:27:30.000Z,16.52
2022-10-26T17:32:21.000Z,16.7
2022-10-26T17:37:16.000Z,16.55
2022-10-26T17:42:10.000Z,16.39
2022-10-26T17:47:04.000Z,16.36
2022-10-26T17:51:59.000Z,16.08
2022-10-26T17:56:53.000Z,15.91
2022-10-26T18:01:48.000Z,15.78
2022-10-26T18:06:42.000Z,15.81
2022-10-26T18:11:37.000Z,15.66
2022-10-26T18:16:31.000Z,15.99
2022-10-26T18:21:23.000Z,15.6
2022-10-26T18:26:17.000Z,15.61
2022-10-26T18:31:11.000Z,15.47
2022-10-26T18:36:05.000Z,15.31
2022-10-26T18:40:59.000Z,15.21
2022-10-26T18:45:54.000Z,14.95
2022-10-26T18:50:50.000Z,14.95
2022-10-26T18:55:40.000Z,14.81
2022-10-26T19:00:32.000Z,14.73
2022-10-26T19:05:24.000Z,14.65
2022-10-26T19:10:19.000Z,14.59
2022-10-26T19:15:13.000Z,14.52
2022-10-26T19:20:05.000Z,14.47
2022-10-26T19:24:59.000Z,14.5
2022-10-26T19:29:54.000Z,14.23
2022-10-26T19:34:48.000Z,14.24
2022-10-26T19:39:42.000Z,14.12
2022-10-26T19:44:37.000Z,14.26
2022-10-26T19:49:31.000Z,14.29
2022-10-26T19:54:25.000Z,14.36
2022-10-26T19:59:20.000Z,14.3
2022-10-26T20:04:14.000Z,14.13
2022-10-26T20:09:09.000Z,14.02
2022-10-26T20:14:03.000Z,14.03
2022-10-26T20:18:57.000Z,14
2022-10-26T20:23:51.000Z,13.81
2022-10-26T20:28:46.000Z,13.73
2022-10-26T20:33:41.000Z,13.75
2022-10-26T20:38:35.000Z,13.69
2022-10-26T20:43:30.000Z,13.61
2022-10-26T20:48:23.000Z,13.52
2022-10-26T20:53:17.000Z,13.44
2022-10-26T20:58:12.000Z,13.51
2022-10-26T21:03:06.000Z,13.36
2022-10-26T21:08:01.000Z,13.5
2022-10-26T21:12:55.000Z,13.54
2022-10-26T21:17:50.000Z,13.42
2022-10-26T21:22:45.000Z,13.27
2022-10-26T21:27:39.000Z,13.26
2022-10-26T21:32:34.000Z,13.21
2022-10-26T21:37:28.000Z,13.09
2022-10-26T21:42:23.000Z,13.08
2022-10-26T21:47:18.000Z,13.15
2022-10-26T21:52:12.000Z,13.1
2022-10-26T21:57:07.000Z,12.99
2022-10-26T22:02:02.000Z,12.99
2022-10-26T22:06:56.000Z,12.96
2022-10-26T22:11:51.000Z,12.84
2022-10-26T22:16:44.000Z,12.91
2022-10-26T22:21:39.000Z,12.88
2022-10-26T22:26:34.000Z,12.85
2022-10-26T22:31:27.000Z,12.87
2022-10-26T22:36:22.000Z,12.87
2022-10-26T22:41:17.000Z,12.91
2022-10-26T22:46:11.000Z,13.03
2022-10-26T22:51:05.000Z,13.02
2022-10-26T22:56:03.000Z,12.98
2022-10-26T23:00:54.000Z,12.92
2022-10-26T23:05:48.000Z,12.77
2022-10-26T23:10:43.000Z,12.73
2022-10-26T23:15:38.000Z,12.76
2022-10-26T23:20:33.000Z,12.68
2022-10-26T23:25:27.000Z,12.65
2022-10-26T23:30:20.000Z,12.48
2022-10-26T23:35:15.000Z,12.48
2022-10-26T23:40:09.000Z,12.39
2022-10-26T23:45:03.000Z,12.43
2022-10-26T23:49:57.000Z,12.38
2022-10-26T23:54:52.000Z,12.33
